createdAt,value
2024-03-11T00:00:10.865Z,2.65
2024-03-11T00:02:37.740Z,3.85
2024-03-11T00:05:04.727Z,3.13
2024-03-11T00:07:35.344Z,3.33
2024-03-11T00:10:02.211Z,1.77
2024-03-11T00:12:30.743Z,4.50
2024-03-11T00:14:58.901Z,4.30
2024-03-11T00:17:25.656Z,3.35
2024-03-11T00:19:52.515Z,3.67
2024-03-11T00:22:19.448Z,2.63
2024-03-11T00:24:46.080Z,3.65
2024-03-11T00:27:12.753Z,4.82
2024-03-11T00:29:39.475Z,3.92
2024-03-11T00:32:10.584Z,3.42
2024-03-11T00:34:37.328Z,3.58
2024-03-11T00:37:04.021Z,3.45
2024-03-11T00:39:31.918Z,5.20
2024-03-11T00:41:58.779Z,2.70
2024-03-11T00:44:25.702Z,3.28
2024-03-11T00:46:52.485Z,2.67
2024-03-11T00:49:20.985Z,3.17
2024-03-11T00:51:47.851Z,3.45
2024-03-11T00:54:14.562Z,2.65
2024-03-11T00:56:41.410Z,2.72
2024-03-11T00:59:08.330Z,2.53
2024-03-11T01:01:35.156Z,3.45
2024-03-11T01:04:01.840Z,4.90
2024-03-11T01:06:29.347Z,4.68
2024-03-11T01:08:58.925Z,2.53
2024-03-11T01:11:26.380Z,2.50
2024-03-11T01:13:53.290Z,2.85
2024-03-11T01:16:20.038Z,4.18
2024-03-11T01:18:47.008Z,4.10
2024-03-11T01:21:19.048Z,2.20
2024-03-11T01:23:48.720Z,4.13
2024-03-11T01:26:15.808Z,3.28
2024-03-11T01:28:43.000Z,3.85
2024-03-11T01:31:12.072Z,4.90
2024-03-11T01:33:38.879Z,3.03
2024-03-11T01:36:05.870Z,4.88
2024-03-11T01:38:32.522Z,3.83
2024-03-11T01:40:59.427Z,4.93
2024-03-11T01:43:26.234Z,3.72
2024-03-11T01:45:53.101Z,4.13
2024-03-11T01:48:20.723Z,4.13
2024-03-11T01:50:49.416Z,3.85
2024-03-11T01:53:16.918Z,3.60
2024-03-11T01:55:47.637Z,9.70
2024-03-11T01:58:15.400Z,9.40
2024-03-11T02:00:43.084Z,6.78
2024-03-11T02:03:09.990Z,5.60
2024-03-11T02:05:42.279Z,4.30
2024-03-11T02:08:09.885Z,4.72
2024-03-11T02:10:37.954Z,4.68
2024-03-11T02:13:05.616Z,5.13
2024-03-11T02:15:32.522Z,4.50
2024-03-11T02:18:00.056Z,4.15
2024-03-11T02:20:28.544Z,6.40
2024-03-11T02:22:57.295Z,5.05
2024-03-11T02:25:29.204Z,4.75
2024-03-11T02:27:59.234Z,4.95
2024-03-11T02:30:26.385Z,3.10
2024-03-11T02:32:53.294Z,4.78
2024-03-11T02:35:20.276Z,4.40
2024-03-11T02:37:48.240Z,3.88
2024-03-11T02:40:20.012Z,3.85
2024-03-11T02:42:47.105Z,4.03
2024-03-11T02:45:15.772Z,4.18
2024-03-11T02:47:43.652Z,3.58
2024-03-11T02:50:11.402Z,4.13
2024-03-11T02:52:38.593Z,4.65
2024-03-11T02:55:07.406Z,3.53
2024-03-11T03:00:01.251Z,3.47
2024-03-11T03:02:28.644Z,4.05
2024-03-11T03:04:57.489Z,5.35
2024-03-11T03:07:27.768Z,4.18
2024-03-11T03:09:54.707Z,4.05
2024-03-11T03:12:21.883Z,3.08
2024-03-11T03:14:49.311Z,4.28
2024-03-11T03:17:16.390Z,3.70
2024-03-11T03:19:43.114Z,4.60
2024-03-11T03:22:09.823Z,4.72
2024-03-11T03:24:36.557Z,4.07
2024-03-11T03:27:03.382Z,6.18
2024-03-11T03:29:33.270Z,4.30
2024-03-11T03:32:00.468Z,4.80
2024-03-11T03:34:27.160Z,3.40
2024-03-11T03:36:55.419Z,5.80
2024-03-11T03:39:22.676Z,5.47
2024-03-11T03:41:51.612Z,6.00
2024-03-11T03:46:45.015Z,8.98
2024-03-11T03:49:11.793Z,10.40
2024-03-11T03:51:38.420Z,8.65
2024-03-11T03:54:05.455Z,7.63
2024-03-11T03:56:32.520Z,8.32
2024-03-11T03:58:59.270Z,8.15
2024-03-11T04:01:26.037Z,7.88
2024-03-11T04:03:52.696Z,7.60
2024-03-11T04:06:19.414Z,6.75
2024-03-11T04:08:46.143Z,6.43
2024-03-11T04:11:13.070Z,8.77
2024-03-11T04:13:41.300Z,7.35
2024-03-11T04:16:08.899Z,7.47
2024-03-11T04:18:35.855Z,7.60
2024-03-11T04:21:03.109Z,8.60
2024-03-11T04:23:30.435Z,9.73
2024-03-11T04:25:58.265Z,7.88
2024-03-11T04:28:26.245Z,8.32
2024-03-11T04:30:53.017Z,7.23
2024-03-11T04:33:19.702Z,7.68
2024-03-11T04:35:47.572Z,9.68
2024-03-11T04:38:14.731Z,11.40
2024-03-11T04:40:45.265Z,10.13
2024-03-11T04:43:12.376Z,7.68
2024-03-11T04:45:39.434Z,9.40
2024-03-11T04:48:07.943Z,9.07
2024-03-11T04:50:39.551Z,6.43
2024-03-11T04:53:08.915Z,6.95
2024-03-11T04:55:38.063Z,8.82
2024-03-11T04:58:05.564Z,6.38
2024-03-11T05:00:32.608Z,6.20
2024-03-11T05:03:01.203Z,7.03
2024-03-11T05:05:28.982Z,6.50
2024-03-11T05:07:55.858Z,8.00
2024-03-11T05:10:22.772Z,8.25
2024-03-11T05:12:51.124Z,7.30
2024-03-11T05:15:19.000Z,5.05
2024-03-11T05:17:46.370Z,9.75
2024-03-11T05:20:16.411Z,8.32
2024-03-11T05:22:44.513Z,6.35
2024-03-11T05:25:16.276Z,7.40
2024-03-11T05:27:44.712Z,6.80
2024-03-11T05:30:11.790Z,7.13
2024-03-11T05:32:38.521Z,6.22
2024-03-11T05:35:06.106Z,9.02
2024-03-11T05:37:34.240Z,8.48
2024-03-11T05:40:01.224Z,7.75
2024-03-11T05:42:28.314Z,7.60
2024-03-11T05:44:57.433Z,7.15
2024-03-11T05:47:27.688Z,7.97
2024-03-11T05:49:55.511Z,7.90
2024-03-11T05:52:26.530Z,8.93
2024-03-11T05:54:54.936Z,7.65
2024-03-11T05:57:31.161Z,6.63
2024-03-11T05:59:58.326Z,6.72
2024-03-11T06:02:25.378Z,10.32
2024-03-11T06:04:52.436Z,9.75
2024-03-11T06:07:24.505Z,10.10
2024-03-11T06:09:52.532Z,9.68
2024-03-11T06:12:22.772Z,8.70
2024-03-11T06:14:50.664Z,8.27
2024-03-11T06:17:18.181Z,6.18
2024-03-11T06:19:46.445Z,6.72
2024-03-11T06:22:13.607Z,7.20
2024-03-11T06:24:40.475Z,7.65
2024-03-11T06:27:07.565Z,7.72
2024-03-11T06:29:35.425Z,7.68
2024-03-11T06:32:07.308Z,8.68
2024-03-11T06:34:36.522Z,7.28
2024-03-11T06:37:03.897Z,7.75
2024-03-11T06:39:33.649Z,7.57
2024-03-11T06:42:02.268Z,8.63
2024-03-11T06:44:34.040Z,14.10
2024-03-11T06:47:09.991Z,8.60
2024-03-11T06:49:38.127Z,8.93
2024-03-11T06:52:08.634Z,8.80
2024-03-11T06:54:35.748Z,9.40
2024-03-11T06:57:02.926Z,11.95
2024-03-11T06:59:30.431Z,11.57
2024-03-11T07:01:58.303Z,13.25
2024-03-11T07:04:25.100Z,16.48
2024-03-11T07:06:52.261Z,16.95
2024-03-11T07:09:20.440Z,19.52
2024-03-11T07:11:47.235Z,15.70
2024-03-11T07:14:15.788Z,14.00
2024-03-11T07:16:44.581Z,11.85
2024-03-11T07:19:12.379Z,12.75
2024-03-11T07:21:40.754Z,10.25
2024-03-11T07:24:08.099Z,11.95
2024-03-11T07:26:34.964Z,8.93
2024-03-11T07:29:01.813Z,9.45
2024-03-11T07:31:28.827Z,9.82
2024-03-11T07:33:55.864Z,11.48
2024-03-11T07:36:23.355Z,13.43
2024-03-11T07:38:50.448Z,12.38
2024-03-11T07:41:17.659Z,46.13
2024-03-11T07:43:45.210Z,11.70
2024-03-11T07:46:12.967Z,14.07
2024-03-11T07:48:40.909Z,14.00
2024-03-11T07:51:09.658Z,10.88
2024-03-11T07:56:05.596Z,9.18
2024-03-11T07:58:36.183Z,10.27
2024-03-11T08:01:03.844Z,11.68
2024-03-11T08:03:31.354Z,12.50
2024-03-11T08:06:00.228Z,10.65
2024-03-11T08:08:27.837Z,9.98
2024-03-11T08:10:55.617Z,11.07
2024-03-11T08:13:22.738Z,10.10
2024-03-11T08:15:50.686Z,11.95
2024-03-11T08:18:18.313Z,11.48
2024-03-11T08:20:45.429Z,11.25
2024-03-11T08:23:12.540Z,9.43
2024-03-11T08:25:46.209Z,9.73
2024-03-11T08:28:17.086Z,9.63
2024-03-11T08:30:44.681Z,9.82
2024-03-11T08:33:14.004Z,8.40
2024-03-11T08:35:42.143Z,9.35
2024-03-11T08:38:09.262Z,10.18
2024-03-11T08:40:36.679Z,9.85
2024-03-11T08:43:03.633Z,10.88
2024-03-11T08:45:33.950Z,10.38
2024-03-11T08:48:01.102Z,17.20
2024-03-11T08:50:28.090Z,13.95
2024-03-11T08:52:55.080Z,13.18
2024-03-11T08:55:22.314Z,12.90
2024-03-11T08:57:52.022Z,8.93
2024-03-11T09:00:19.548Z,9.77
2024-03-11T09:02:47.019Z,8.82
2024-03-11T09:05:19.397Z,20.00
2024-03-11T09:07:47.730Z,10.13
2024-03-11T09:10:18.631Z,9.13
2024-03-11T09:12:46.639Z,8.85
2024-03-11T09:15:18.538Z,8.27
2024-03-11T09:17:49.924Z,12.48
2024-03-11T09:20:17.276Z,8.43
2024-03-11T09:22:52.533Z,9.85
2024-03-11T09:25:26.587Z,11.13
2024-03-11T09:28:05.880Z,5.55
2024-03-11T09:30:38.517Z,6.18
2024-03-11T09:33:06.604Z,4.65
2024-03-11T09:35:33.856Z,8.73
2024-03-11T09:38:02.160Z,6.55
2024-03-11T09:40:30.140Z,5.03
2024-03-11T09:43:00.429Z,6.95
2024-03-11T09:45:31.007Z,5.88
2024-03-11T09:48:00.693Z,4.18
2024-03-11T09:50:32.428Z,6.78
2024-03-11T09:53:05.345Z,7.28
2024-03-11T09:55:33.367Z,6.03
2024-03-11T09:58:03.091Z,3.92
2024-03-11T10:00:30.886Z,4.65
2024-03-11T10:03:02.459Z,4.55
2024-03-11T10:05:32.843Z,4.25
2024-03-11T10:08:00.972Z,4.72
2024-03-11T10:10:30.678Z,6.13
2024-03-11T10:13:00.067Z,5.22
2024-03-11T10:15:32.114Z,5.40
2024-03-11T10:18:16.690Z,5.13
2024-03-11T10:20:45.490Z,5.18
2024-03-11T10:25:47.505Z,3.90
2024-03-11T10:28:32.927Z,4.15
2024-03-11T10:30:59.722Z,5.28
2024-03-11T10:33:33.694Z,5.18
2024-03-11T10:36:08.337Z,5.18
2024-03-11T10:38:35.108Z,5.30
2024-03-11T10:41:18.269Z,6.63
2024-03-11T10:43:44.947Z,5.15
2024-03-11T10:46:21.814Z,5.38
2024-03-11T10:48:48.835Z,6.20
2024-03-11T10:51:25.566Z,6.10
2024-03-11T10:53:53.483Z,5.15
2024-03-11T10:56:27.134Z,4.53
2024-03-11T10:58:57.819Z,4.93
2024-03-11T11:01:35.197Z,5.53
2024-03-11T11:04:15.860Z,6.00
2024-03-11T11:06:47.411Z,6.00
2024-03-11T11:09:15.321Z,5.60
2024-03-11T11:11:50.504Z,4.07
2024-03-11T11:14:20.480Z,5.97
2024-03-11T11:16:50.609Z,5.07
2024-03-11T11:19:23.726Z,7.50
2024-03-11T11:21:54.612Z,5.75
2024-03-11T11:24:32.943Z,5.43
2024-03-11T11:27:07.824Z,4.78
2024-03-11T11:29:35.159Z,5.75
2024-03-11T11:32:04.843Z,4.88
2024-03-11T11:34:46.718Z,3.30
2024-03-11T11:37:26.886Z,4.78
2024-03-11T11:39:53.735Z,4.32
2024-03-11T11:42:33.821Z,3.97
2024-03-11T11:45:00.798Z,3.70
2024-03-11T11:47:28.827Z,5.68
2024-03-11T11:49:58.843Z,4.05
2024-03-11T11:52:27.828Z,3.60
2024-03-11T11:54:57.112Z,3.97
2024-03-11T11:57:26.281Z,4.38
2024-03-11T11:59:57.042Z,5.13
2024-03-11T12:02:31.087Z,4.85
2024-03-11T12:05:02.326Z,6.18
2024-03-11T12:07:30.145Z,4.68
2024-03-11T12:09:59.659Z,6.20
2024-03-11T12:12:32.038Z,4.65
2024-03-11T12:15:02.668Z,4.05
2024-03-11T12:17:31.292Z,5.25
2024-03-11T12:20:21.856Z,5.25
2024-03-11T12:22:49.455Z,4.22
2024-03-11T12:25:17.065Z,5.88
2024-03-11T12:27:45.262Z,5.22
2024-03-11T12:30:20.844Z,4.87
2024-03-11T12:33:06.148Z,6.20
2024-03-11T12:35:45.817Z,5.25
2024-03-11T12:38:15.272Z,4.95
2024-03-11T12:40:45.062Z,4.68
2024-03-11T12:43:24.342Z,5.07
2024-03-11T12:45:53.858Z,4.95
2024-03-11T12:48:20.846Z,5.43
2024-03-11T12:50:48.171Z,6.93
2024-03-11T12:53:16.371Z,5.75
2024-03-11T12:55:44.547Z,6.63
2024-03-11T12:58:19.405Z,5.38
2024-03-11T13:00:49.237Z,4.78
2024-03-11T13:03:20.348Z,5.25
2024-03-11T13:05:56.587Z,5.00
2024-03-11T13:08:23.617Z,5.95
2024-03-11T13:11:05.342Z,5.35
2024-03-11T13:13:33.000Z,6.60
2024-03-11T13:16:02.975Z,5.05
2024-03-11T13:18:33.100Z,5.20
2024-03-11T13:21:00.679Z,5.90
2024-03-11T13:23:27.500Z,4.90
2024-03-11T13:25:55.599Z,6.68
2024-03-11T13:28:22.714Z,5.65
2024-03-11T13:30:50.556Z,6.20
2024-03-11T13:33:18.009Z,6.93
2024-03-11T13:35:44.723Z,5.30
2024-03-11T13:38:15.597Z,4.90
2024-03-11T13:40:42.567Z,5.85
2024-03-11T13:43:15.742Z,5.55
2024-03-11T13:45:51.157Z,5.95
2024-03-11T13:48:21.906Z,5.55
2024-03-11T13:50:48.849Z,6.90
2024-03-11T13:53:16.722Z,5.97
2024-03-11T13:55:50.692Z,5.37
2024-03-11T13:58:18.160Z,5.70
2024-03-11T14:00:49.465Z,5.85
2024-03-11T14:03:19.285Z,6.35
2024-03-11T14:05:46.032Z,5.93
2024-03-11T14:08:13.939Z,5.35
2024-03-11T14:10:40.681Z,5.47
2024-03-11T14:13:07.421Z,5.32
2024-03-11T14:15:34.171Z,5.65
2024-03-11T14:18:01.399Z,5.80
2024-03-11T14:20:32.093Z,4.60
2024-03-11T14:22:59.658Z,6.15
2024-03-11T14:25:27.789Z,7.15
2024-03-11T14:27:55.670Z,5.97
2024-03-11T14:30:26.723Z,5.75
2024-03-11T14:32:54.023Z,5.43
2024-03-11T14:35:22.768Z,5.25
2024-03-11T14:37:50.120Z,6.13
2024-03-11T14:40:36.223Z,6.38
2024-03-11T14:43:07.555Z,6.63
2024-03-11T14:45:39.712Z,4.93
2024-03-11T14:48:14.053Z,6.82
2024-03-11T14:50:41.756Z,5.32
2024-03-11T14:53:09.637Z,6.10
2024-03-11T14:55:43.286Z,7.82
2024-03-11T14:58:13.971Z,6.35
2024-03-11T15:01:03.321Z,6.50
2024-03-11T15:03:30.505Z,5.82
2024-03-11T15:06:00.787Z,7.00
2024-03-11T15:08:29.736Z,7.40
2024-03-11T15:13:26.965Z,6.18
2024-03-11T15:15:56.388Z,6.32
2024-03-11T15:18:25.397Z,7.10
2024-03-11T15:20:53.583Z,6.07
2024-03-11T15:23:25.952Z,8.23
2024-03-11T15:26:00.291Z,6.43
2024-03-11T15:28:27.272Z,6.15
2024-03-11T15:30:55.596Z,6.82
2024-03-11T15:33:23.301Z,6.90
2024-03-11T15:35:53.559Z,7.03
2024-03-11T15:38:22.057Z,6.03
2024-03-11T15:40:49.754Z,6.50
2024-03-11T15:43:17.578Z,7.07
2024-03-11T15:45:46.066Z,5.60
2024-03-11T15:48:14.486Z,6.85
2024-03-11T15:50:41.572Z,5.45
2024-03-11T15:53:14.554Z,6.80
2024-03-11T15:55:41.796Z,6.60
2024-03-11T15:58:08.881Z,6.60
2024-03-11T16:00:37.641Z,6.60
2024-03-11T16:03:10.153Z,7.43
2024-03-11T16:05:40.837Z,7.68
2024-03-11T16:08:17.192Z,9.70
2024-03-11T16:10:45.976Z,8.17
2024-03-11T16:13:14.814Z,9.25
2024-03-11T16:15:41.808Z,12.57
2024-03-11T16:18:08.640Z,10.23
2024-03-11T16:20:35.399Z,6.70
2024-03-11T16:23:02.067Z,7.63
2024-03-11T16:25:31.347Z,6.28
2024-03-11T16:28:03.344Z,7.97
2024-03-11T16:30:30.665Z,8.93
2024-03-11T16:32:59.144Z,8.43
2024-03-11T16:35:28.746Z,7.03
2024-03-11T16:37:57.125Z,8.20
2024-03-11T16:40:27.197Z,7.93
2024-03-11T16:43:27.527Z,8.93
2024-03-11T16:45:54.957Z,9.38
2024-03-11T16:48:23.752Z,10.75
2024-03-11T16:53:23.450Z,9.15
2024-03-11T16:55:52.451Z,9.80
2024-03-11T16:58:19.451Z,9.57
2024-03-11T17:00:50.310Z,9.55
2024-03-11T17:03:18.113Z,8.98
2024-03-11T17:05:45.881Z,9.88
2024-03-11T17:08:16.479Z,9.05
2024-03-11T17:10:46.704Z,8.52
2024-03-11T17:13:16.430Z,11.93
2024-03-11T17:15:44.259Z,10.32
2024-03-11T17:18:13.794Z,12.77
2024-03-11T17:20:46.377Z,16.17
2024-03-11T17:23:18.051Z,15.68
2024-03-11T17:25:46.645Z,11.93
2024-03-11T17:28:17.659Z,11.13
2024-03-11T17:30:47.596Z,12.65
2024-03-11T17:33:22.899Z,17.08
2024-03-11T17:35:53.592Z,13.90
2024-03-11T17:38:23.734Z,11.68
2024-03-11T17:40:54.241Z,12.23
2024-03-11T17:43:21.883Z,11.88
2024-03-11T17:45:51.142Z,11.75
2024-03-11T17:48:23.147Z,12.02
2024-03-11T17:50:50.605Z,10.15
2024-03-11T17:53:20.652Z,11.00
2024-03-11T17:55:48.087Z,11.18
2024-03-11T17:58:23.043Z,11.68
2024-03-11T18:00:51.084Z,13.80
2024-03-11T18:03:19.168Z,11.27
2024-03-11T18:05:47.245Z,11.20
2024-03-11T18:08:15.278Z,11.43
2024-03-11T18:10:42.620Z,14.95
2024-03-11T18:13:16.362Z,12.77
2024-03-11T18:15:44.280Z,10.80
2024-03-11T18:18:11.960Z,10.65
2024-03-11T18:20:42.478Z,12.57
2024-03-11T18:23:15.173Z,11.00
2024-03-11T18:25:43.428Z,9.50
2024-03-11T18:28:10.304Z,11.57
2024-03-11T18:30:37.580Z,9.95
2024-03-11T18:33:06.854Z,9.45
2024-03-11T18:35:37.061Z,10.20
2024-03-11T18:38:07.377Z,11.32
2024-03-11T18:40:35.691Z,11.52
2024-03-11T18:43:05.221Z,12.43
2024-03-11T18:45:34.005Z,11.88
2024-03-11T18:48:02.399Z,13.57
2024-03-11T18:50:29.707Z,14.23
2024-03-11T18:53:00.701Z,13.43
2024-03-11T18:55:31.509Z,17.60
2024-03-11T18:57:59.859Z,13.60
2024-03-11T19:00:33.434Z,16.77
2024-03-11T19:03:02.657Z,17.73
2024-03-11T19:05:30.619Z,19.08
2024-03-11T19:07:57.971Z,14.77
2024-03-11T19:10:28.185Z,14.50
2024-03-11T19:12:57.284Z,15.32
2024-03-11T19:17:53.543Z,15.38
2024-03-11T19:20:26.945Z,13.25
2024-03-11T19:22:54.716Z,15.40
2024-03-11T19:25:25.667Z,13.80
2024-03-11T19:27:53.298Z,15.20
2024-03-11T19:30:23.658Z,15.88
2024-03-11T19:32:54.637Z,14.65
2024-03-11T19:35:22.920Z,14.32
2024-03-11T19:38:15.811Z,16.55
2024-03-11T19:41:04.086Z,12.85
2024-03-11T19:43:42.778Z,13.93
2024-03-11T19:46:30.098Z,16.65
2024-03-11T19:49:27.549Z,16.98
2024-03-11T19:52:31.994Z,15.27
2024-03-11T19:55:32.905Z,13.25
2024-03-11T19:58:22.636Z,12.98
2024-03-11T20:01:25.916Z,12.68
2024-03-11T20:04:28.585Z,12.65
2024-03-11T20:07:08.900Z,11.90
2024-03-11T20:10:02.206Z,12.23
2024-03-11T20:12:47.580Z,10.35
2024-03-11T20:15:39.092Z,12.05
2024-03-11T20:18:30.776Z,11.25
2024-03-11T20:21:30.897Z,12.90
2024-03-11T20:24:46.164Z,13.18
2024-03-11T20:27:30.062Z,12.50
2024-03-11T20:30:06.140Z,11.23
2024-03-11T20:32:53.154Z,12.23
2024-03-11T20:35:20.008Z,11.57
2024-03-11T20:37:47.396Z,12.02
2024-03-11T20:40:14.596Z,13.02
2024-03-11T20:42:41.451Z,12.13
2024-03-11T20:45:08.811Z,11.30
2024-03-11T20:47:35.583Z,12.57
2024-03-11T20:50:02.263Z,11.50
2024-03-11T20:52:31.359Z,12.65
2024-03-11T20:54:58.086Z,10.63
2024-03-11T20:57:26.898Z,10.18
2024-03-11T21:02:20.556Z,9.88
2024-03-11T21:04:47.210Z,11.90
2024-03-11T21:07:14.187Z,14.70
2024-03-11T21:09:42.711Z,18.42
2024-03-11T21:12:09.507Z,14.93
2024-03-11T21:14:36.242Z,23.33
2024-03-11T21:17:10.431Z,25.20
2024-03-11T21:19:50.191Z,23.30
2024-03-11T21:22:16.913Z,18.88
2024-03-11T21:24:55.252Z,12.90
2024-03-11T21:27:25.862Z,16.27
2024-03-11T21:29:55.634Z,16.92
2024-03-11T21:32:26.393Z,13.38
2024-03-11T21:34:53.481Z,13.82
2024-03-11T21:37:20.915Z,12.38
2024-03-11T21:39:54.531Z,14.02
2024-03-11T21:42:22.338Z,13.27
2024-03-11T21:44:50.185Z,12.10
2024-03-11T21:47:20.401Z,15.32
2024-03-11T21:49:47.157Z,13.07
2024-03-11T21:52:14.024Z,15.23
2024-03-11T21:54:42.050Z,12.77
2024-03-11T21:57:09.215Z,11.45
2024-03-11T21:59:36.533Z,13.63
2024-03-11T22:02:03.335Z,12.77
2024-03-11T22:04:30.039Z,12.07
2024-03-11T22:06:56.971Z,14.68
2024-03-11T22:09:24.230Z,13.40
2024-03-11T22:11:51.139Z,11.20
2024-03-11T22:14:19.552Z,11.82
2024-03-11T22:16:46.400Z,10.82
2024-03-11T22:19:13.192Z,11.77
2024-03-11T22:21:40.945Z,11.82
2024-03-11T22:24:12.299Z,11.13
2024-03-11T22:26:46.643Z,10.40
2024-03-11T22:29:13.466Z,10.48
2024-03-11T22:31:40.891Z,9.68
2024-03-11T22:34:13.189Z,9.32
2024-03-11T22:36:42.658Z,9.80
2024-03-11T22:39:10.235Z,9.25
2024-03-11T22:41:40.712Z,10.02
2024-03-11T22:44:08.989Z,9.75
2024-03-11T22:46:37.150Z,8.88
2024-03-11T22:49:09.208Z,11.05
2024-03-11T22:51:41.415Z,10.65
2024-03-11T22:54:09.004Z,8.57
2024-03-11T22:56:36.758Z,11.50
2024-03-11T22:59:03.528Z,9.10
2024-03-11T23:01:35.410Z,10.88
2024-03-11T23:04:06.168Z,9.98
2024-03-11T23:06:36.776Z,10.93
2024-03-11T23:09:05.037Z,10.02
2024-03-11T23:11:35.055Z,9.35
2024-03-11T23:14:01.808Z,9.95
2024-03-11T23:16:28.491Z,11.23
2024-03-11T23:18:55.178Z,8.63
2024-03-11T23:21:21.944Z,10.63
2024-03-11T23:23:50.667Z,9.23
2024-03-11T23:26:20.402Z,8.45
2024-03-11T23:28:47.464Z,10.43
2024-03-11T23:31:15.130Z,10.40
2024-03-11T23:33:42.071Z,10.00
2024-03-11T23:36:10.923Z,10.75
2024-03-11T23:38:41.001Z,8.30
2024-03-11T23:41:08.395Z,9.30
2024-03-11T23:43:35.198Z,10.18
2024-03-11T23:46:02.781Z,9.57
2024-03-11T23:48:29.974Z,9.63
2024-03-11T23:50:57.137Z,9.68
2024-03-11T23:53:27.676Z,11.07
2024-03-11T23:56:00.152Z,10.25
2024-03-11T23:58:29.469Z,10.20
